Time;durP1;ratioP1;P1;durP2;ratioP2;P2;SDS_P1;SDS_P2;PMS_P1;PMS_P2;Temp;Humidity;BMP_temperature;BMP_pressure;BME280_temperature;BME280_humidity;BME280_pressure;Samples;Min_cycle;Max_cycle;Signal;HPM_P1;HPM_P2
2022/12/28 00:01:08;;;;;;;3.67;2.30;;;3.90;99.90;;;;;;5071016;28;20955;-75
2022/12/28 00:03:34;;;;;;;5.00;2.63;;;3.90;99.90;;;;;;5071492;28;20401;-74
2022/12/28 00:06:00;;;;;;;3.87;2.70;;;3.90;99.90;;;;;;5071521;28;20399;-74
2022/12/28 00:08:26;;;;;;;6.90;2.93;;;3.90;99.90;;;;;;5071719;28;20174;-74
2022/12/28 00:10:51;;;;;;;3.60;2.27;;;3.90;99.90;;;;;;5053324;28;20511;-74
2022/12/28 00:13:17;;;;;;;8.73;2.47;;;3.90;99.90;;;;;;5071590;28;20661;-75
2022/12/28 00:15:42;;;;;;;6.53;3.17;;;3.90;99.90;;;;;;5071656;28;20169;-76
2022/12/28 00:18:08;;;;;;;3.20;2.50;;;3.90;99.90;;;;;;5071533;28;20632;-75
2022/12/28 00:20:33;;;;;;;3.30;2.57;;;3.90;99.90;;;;;;5071353;28;20602;-74
2022/12/28 00:23:03;;;;;;;5.73;2.70;;;3.90;99.90;;;;;;5053400;28;20198;-75
2022/12/28 00:25:28;;;;;;;3.73;2.87;;;3.90;99.90;;;;;;5071592;28;20173;-75
2022/12/28 00:27:54;;;;;;;4.33;2.30;;;3.80;99.90;;;;;;5069795;28;20443;-74
2022/12/28 00:30:19;;;;;;;5.73;2.90;;;3.80;99.90;;;;;;5070729;28;20179;-74
2022/12/28 00:32:45;;;;;;;4.23;3.10;;;3.80;99.90;;;;;;5069356;28;20258;-74
2022/12/28 00:35:10;;;;;;;3.93;2.87;;;3.80;99.90;;;;;;5070813;28;20277;-75
2022/12/28 00:37:36;;;;;;;3.27;2.53;;;3.80;99.90;;;;;;5070057;28;20200;-76
2022/12/28 00:40:01;;;;;;;4.53;2.50;;;3.80;99.90;;;;;;5071562;28;20173;-75
2022/12/28 00:42:27;;;;;;;4.47;2.60;;;3.80;99.90;;;;;;5070773;28;20205;-75
2022/12/28 00:44:52;;;;;;;5.83;3.23;;;3.70;99.90;;;;;;5071114;28;20595;-75
2022/12/28 00:47:18;;;;;;;5.93;2.97;;;3.70;99.90;;;;;;5074864;28;20174;-75
2022/12/28 00:49:43;;;;;;;4.20;2.27;;;3.80;99.90;;;;;;5075110;28;20172;-75
2022/12/28 00:52:09;;;;;;;5.43;2.23;;;3.80;99.90;;;;;;5057217;28;20331;-75
2022/12/28 00:54:34;;;;;;;3.93;3.03;;;3.80;99.90;;;;;;5074760;28;20170;-75
2022/12/28 00:57:00;;;;;;;4.27;2.60;;;3.90;99.90;;;;;;5074918;28;20326;-75
2022/12/28 00:59:25;;;;;;;6.23;2.47;;;3.90;99.90;;;;;;5074740;28;20206;-75
2022/12/28 01:01:51;;;;;;;2.50;2.00;;;4.00;99.90;;;;;;5074670;28;20201;-76
2022/12/28 01:04:16;;;;;;;5.43;2.13;;;4.00;99.90;;;;;;5075130;28;20182;-75
2022/12/28 01:06:42;;;;;;;4.13;2.10;;;4.00;99.90;;;;;;5074801;28;20189;-75
2022/12/28 01:09:07;;;;;;;4.37;2.60;;;4.00;99.90;;;;;;5074983;28;20193;-74
2022/12/28 01:11:33;;;;;;;3.83;2.33;;;4.10;99.90;;;;;;5074435;28;20221;-75
2022/12/28 01:14:01;;;;;;;3.73;2.90;;;4.10;99.90;;;;;;5074708;28;20175;-75
2022/12/28 01:16:34;;;;;;;11.00;3.10;;;4.20;99.90;;;;;;5074909;28;20212;-81
2022/12/28 01:19:03;;;;;;;2.87;2.40;;;4.20;99.90;;;;;;5075265;28;20522;-73
2022/12/28 01:21:31;;;;;;;5.93;2.57;;;4.20;99.90;;;;;;5073898;28;20439;-74
2022/12/28 01:23:58;;;;;;;5.10;2.70;;;4.20;99.90;;;;;;5071129;28;20402;-74
2022/12/28 01:26:25;;;;;;;8.20;3.03;;;4.20;99.90;;;;;;5073378;28;20198;-73
2022/12/28 01:28:51;;;;;;;4.73;2.27;;;4.20;99.90;;;;;;5074365;28;20394;-74
2022/12/28 01:31:18;;;;;;;6.30;3.20;;;4.20;99.90;;;;;;5074266;28;20548;-74
2022/12/28 01:33:44;;;;;;;3.33;1.93;;;4.20;99.90;;;;;;5074254;28;20179;-73
2022/12/28 01:36:15;;;;;;;4.80;2.90;;;4.20;99.90;;;;;;5073856;28;20530;-74
2022/12/28 01:38:41;;;;;;;3.63;1.80;;;4.20;99.90;;;;;;5073200;28;20485;-74
2022/12/28 01:41:12;;;;;;;7.60;2.30;;;4.20;99.90;;;;;;5073836;28;20534;-74
2022/12/28 01:43:44;;;;;;;6.87;2.00;;;4.20;99.90;;;;;;5074003;28;20420;-74
2022/12/28 01:46:14;;;;;;;5.33;2.13;;;4.20;99.90;;;;;;5074046;28;20814;-73
2022/12/28 01:49:01;;;;;;;5.40;2.37;;;4.20;99.90;;;;;;5074104;28;20418;-74
2022/12/28 01:51:33;;;;;;;3.60;2.13;;;4.20;99.90;;;;;;5053912;28;20520;-73
2022/12/28 01:54:00;;;;;;;2.83;1.87;;;4.20;99.90;;;;;;5054240;28;20505;-74
2022/12/28 01:56:26;;;;;;;5.00;2.40;;;4.30;99.90;;;;;;5073819;28;20404;-73
2022/12/28 01:58:53;;;;;;;2.17;1.53;;;4.30;99.90;;;;;;5073098;28;20465;-74
2022/12/28 03:31:56;;;;;;;1.47;0.70;;;5.70;99.90;;;;;;5547063;22;20756;-73
2022/12/28 03:34:22;;;;;;;2.47;0.63;;;5.70;99.90;;;;;;5002627;28;20499;-72
2022/12/28 03:36:58;;;;;;;2.33;1.00;;;5.70;99.90;;;;;;5040207;28;20216;-73
2022/12/28 03:39:40;;;;;;;2.07;0.97;;;5.70;99.90;;;;;;5033210;28;20549;-73
2022/12/28 03:45:21;;;;;;;2.17;0.60;;;5.70;99.90;;;;;;5033870;28;20407;-73
2022/12/28 03:47:49;;;;;;;4.70;0.90;;;5.80;99.90;;;;;;5029530;28;20417;-74
2022/12/28 03:50:16;;;;;;;1.27;0.70;;;5.80;99.90;;;;;;5050608;28;20418;-73
2022/12/28 03:52:42;;;;;;;6.00;1.33;;;5.80;99.90;;;;;;5046158;28;20451;-72
2022/12/28 03:55:09;;;;;;;1.73;0.80;;;5.80;99.90;;;;;;5050774;28;20423;-73
2022/12/28 03:57:34;;;;;;;1.13;0.90;;;5.80;99.90;;;;;;5038447;28;20411;-73
2022/12/28 04:00:00;;;;;;;2.30;0.87;;;5.80;99.90;;;;;;5032430;28;20423;-73
2022/12/28 04:02:25;;;;;;;2.80;1.03;;;5.80;99.90;;;;;;5046071;28;20232;-73
2022/12/28 04:04:51;;;;;;;2.20;0.93;;;5.80;99.90;;;;;;5043870;28;20250;-73
2022/12/28 04:07:17;;;;;;;1.20;0.80;;;5.80;99.90;;;;;;5035893;28;20633;-74
2022/12/28 04:09:42;;;;;;;3.10;0.90;;;5.70;99.90;;;;;;5032903;28;20180;-74
2022/12/28 04:12:08;;;;;;;1.30;0.90;;;5.70;99.90;;;;;;5040988;28;20205;-74
2022/12/28 04:14:33;;;;;;;2.80;0.90;;;5.80;99.90;;;;;;5050588;28;20647;-74
2022/12/28 04:16:59;;;;;;;2.53;1.03;;;5.70;99.90;;;;;;5045188;28;20216;-73
2022/12/28 04:19:24;;;;;;;1.40;0.80;;;5.70;99.90;;;;;;5052309;28;20287;-74
2022/12/28 04:21:50;;;;;;;1.40;1.23;;;5.70;99.90;;;;;;5051533;28;20206;-74
2022/12/28 04:24:15;;;;;;;3.37;1.20;;;5.70;99.90;;;;;;5069244;28;20222;-73
2022/12/28 04:26:41;;;;;;;2.03;1.40;;;5.70;99.90;;;;;;5050517;28;20177;-72
2022/12/28 04:29:06;;;;;;;2.30;1.10;;;5.70;99.90;;;;;;5032530;28;20194;-74
2022/12/28 04:31:32;;;;;;;2.67;0.90;;;5.70;99.90;;;;;;5051378;28;20349;-74
2022/12/28 04:33:58;;;;;;;2.17;1.37;;;5.70;99.90;;;;;;5052567;28;20262;-73
2022/12/28 04:36:24;;;;;;;1.00;0.70;;;5.60;99.90;;;;;;5034378;28;20673;-73
2022/12/28 04:38:51;;;;;;;3.20;1.10;;;5.70;99.90;;;;;;5031998;28;20552;-74
2022/12/28 04:41:16;;;;;;;2.57;0.90;;;5.70;99.90;;;;;;5031368;28;20970;-73
2022/12/28 04:43:42;;;;;;;1.67;1.00;;;5.60;99.90;;;;;;5036048;28;20417;-74
2022/12/28 04:46:15;;;;;;;1.43;0.80;;;5.60;99.90;;;;;;5037636;28;20419;-73
2022/12/28 04:48:41;;;;;;;1.40;0.90;;;5.60;99.90;;;;;;5045394;28;20191;-73
2022/12/28 04:51:10;;;;;;;1.97;1.10;;;5.70;99.90;;;;;;5051208;28;20400;-73
2022/12/28 04:53:40;;;;;;;3.13;1.27;;;5.60;99.90;;;;;;5058173;28;20189;-74
2022/12/28 04:56:07;;;;;;;0.70;0.70;;;5.60;99.90;;;;;;5038969;28;20515;-74
2022/12/28 04:58:33;;;;;;;2.70;1.13;;;5.60;99.90;;;;;;5044947;28;20568;-74
2022/12/28 05:01:10;;;;;;;0.60;0.60;;;5.70;99.90;;;;;;5032223;28;20434;-73
2022/12/28 05:03:37;;;;;;;4.50;2.23;;;5.70;99.90;;;;;;5032077;28;20210;-74
2022/12/28 05:06:06;;;;;;;1.33;0.70;;;5.70;99.90;;;;;;5032272;28;20859;-74
2022/12/28 05:08:32;;;;;;;0.80;0.80;;;5.70;99.90;;;;;;5033218;28;20415;-74
2022/12/28 05:11:00;;;;;;;1.70;0.80;;;5.70;99.90;;;;;;5036729;28;20469;-72
2022/12/28 05:13:25;;;;;;;0.77;0.70;;;5.60;99.90;;;;;;5051916;28;20431;-74
2022/12/28 05:15:51;;;;;;;2.33;0.97;;;5.70;99.90;;;;;;5045965;28;20408;-73
2022/12/28 05:18:16;;;;;;;1.50;0.83;;;5.70;99.90;;;;;;5031835;28;20209;-74
2022/12/28 05:20:42;;;;;;;2.70;0.80;;;5.70;99.90;;;;;;5036734;28;20176;-73
2022/12/28 05:23:07;;;;;;;2.70;0.73;;;5.70;99.90;;;;;;5069824;28;20229;-74
2022/12/28 05:25:33;;;;;;;0.93;0.90;;;5.70;99.90;;;;;;5052349;28;20256;-73
2022/12/28 05:27:58;;;;;;;2.80;0.80;;;5.70;99.90;;;;;;5052589;28;20545;-73
2022/12/28 05:30:24;;;;;;;1.53;0.90;;;5.70;99.90;;;;;;5051146;28;20528;-74
2022/12/28 05:32:50;;;;;;;0.60;0.60;;;5.70;99.90;;;;;;5054345;28;20212;-74
2022/12/28 05:35:15;;;;;;;3.43;0.90;;;5.70;99.90;;;;;;5055898;28;20649;-74
2022/12/28 05:37:41;;;;;;;1.10;1.00;;;5.80;99.90;;;;;;5019825;28;20215;-74
2022/12/28 05:40:07;;;;;;;1.00;0.60;;;5.70;99.90;;;;;;5035534;28;20173;-74
2022/12/28 05:42:34;;;;;;;2.80;0.70;;;5.80;99.90;;;;;;5050476;28;20763;-74
2022/12/28 05:45:00;;;;;;;1.30;0.80;;;5.80;99.90;;;;;;5055409;28;20512;-74
2022/12/28 05:47:25;;;;;;;2.10;1.17;;;5.80;99.90;;;;;;5037161;28;21179;-74
2022/12/28 05:49:51;;;;;;;0.60;0.50;;;5.80;99.90;;;;;;5036006;28;20177;-73
2022/12/28 05:52:16;;;;;;;1.00;0.90;;;5.90;99.90;;;;;;5051885;28;20738;-74
2022/12/28 05:54:42;;;;;;;0.97;0.60;;;5.80;99.90;;;;;;5055770;28;20541;-73
2022/12/28 05:57:07;;;;;;;2.97;0.73;;;5.70;99.90;;;;;;5057719;28;20182;-74
2022/12/28 05:59:33;;;;;;;2.03;0.70;;;5.70;99.90;;;;;;5035725;28;20208;-73
2022/12/28 06:01:59;;;;;;;0.97;0.67;;;5.80;99.90;;;;;;5053599;28;20196;-78
2022/12/28 06:04:24;;;;;;;3.40;0.80;;;5.80;99.90;;;;;;5058109;28;20176;-73
2022/12/28 06:06:50;;;;;;;0.67;0.67;;;5.80;99.90;;;;;;5061261;28;20185;-74
2022/12/28 06:09:16;;;;;;;1.40;0.80;;;5.90;99.90;;;;;;5021786;28;20199;-75
2022/12/28 06:11:42;;;;;;;1.10;0.70;;;5.80;99.90;;;;;;5054195;28;20228;-73
2022/12/28 06:14:07;;;;;;;1.40;0.70;;;5.80;99.90;;;;;;5054249;28;20215;-74
2022/12/28 06:16:36;;;;;;;1.73;0.70;;;5.90;99.90;;;;;;5054869;28;20956;-74
2022/12/28 06:19:06;;;;;;;1.00;0.80;;;5.90;99.90;;;;;;5052582;28;20291;-73
2022/12/28 06:21:33;;;;;;;1.10;0.80;;;5.90;99.90;;;;;;5034303;28;20443;-73
2022/12/28 06:24:00;;;;;;;1.73;0.63;;;6.00;99.90;;;;;;5034983;28;20403;-73
2022/12/28 06:26:27;;;;;;;1.40;0.90;;;6.00;99.90;;;;;;5072870;28;20777;-73
2022/12/28 06:28:53;;;;;;;2.47;0.70;;;5.90;99.90;;;;;;5054663;28;20456;-73
2022/12/28 06:31:26;;;;;;;3.20;0.73;;;5.90;99.90;;;;;;5049588;28;21354;-73
2022/12/28 06:33:54;;;;;;;1.10;0.80;;;5.90;99.90;;;;;;5054442;28;20191;-74
2022/12/28 06:36:32;;;;;;;1.67;1.00;;;6.00;99.90;;;;;;5034698;28;20786;-74
2022/12/28 06:39:00;;;;;;;1.80;1.00;;;6.00;99.90;;;;;;5034516;28;20462;-72
2022/12/28 06:41:27;;;;;;;2.13;0.80;;;6.10;99.90;;;;;;5053292;28;20443;-72
2022/12/28 06:43:53;;;;;;;1.20;0.70;;;6.10;99.90;;;;;;5053255;28;20451;-72
2022/12/28 06:46:20;;;;;;;2.30;1.10;;;6.10;99.90;;;;;;5032018;28;20469;-74
2022/12/28 06:48:46;;;;;;;1.07;0.73;;;6.20;99.90;;;;;;5034045;28;20420;-73
2022/12/28 06:51:18;;;;;;;2.90;0.80;;;6.10;99.90;;;;;;5049520;28;20413;-73
2022/12/28 06:53:45;;;;;;;1.00;0.90;;;6.20;99.90;;;;;;5053688;28;20793;-73
2022/12/28 06:56:18;;;;;;;1.87;0.80;;;6.20;99.90;;;;;;5036857;28;20431;-73
2022/12/28 06:58:45;;;;;;;2.30;0.70;;;6.20;99.90;;;;;;5034050;28;20452;-72
2022/12/28 07:01:22;;;;;;;1.30;0.87;;;6.20;99.90;;;;;;5034154;28;20438;-73
2022/12/28 07:03:50;;;;;;;2.00;1.00;;;6.20;99.90;;;;;;5033330;28;20987;-72
2022/12/28 07:06:18;;;;;;;3.60;1.00;;;6.20;99.90;;;;;;5068973;28;20941;-71
2022/12/28 07:08:44;;;;;;;2.97;0.87;;;6.20;99.90;;;;;;5053749;28;20460;-72
2022/12/28 07:11:12;;;;;;;1.17;1.07;;;6.20;99.90;;;;;;5036956;28;20453;-72
2022/12/28 07:13:38;;;;;;;3.23;0.90;;;6.20;99.90;;;;;;5033504;28;20418;-71
2022/12/28 07:16:07;;;;;;;1.10;1.00;;;6.20;99.90;;;;;;5048696;28;20483;-71
2022/12/28 07:18:33;;;;;;;2.20;0.93;;;6.20;99.90;;;;;;5053367;28;20470;-71
2022/12/28 07:21:04;;;;;;;1.67;0.87;;;6.20;99.90;;;;;;5039146;28;20422;-70
2022/12/28 07:23:30;;;;;;;1.37;0.97;;;6.20;99.90;;;;;;5033312;28;20480;-71
2022/12/28 07:26:02;;;;;;;3.30;1.57;;;6.20;99.90;;;;;;5048471;28;20455;-70
2022/12/28 07:28:28;;;;;;;2.70;1.43;;;6.30;99.90;;;;;;5042317;28;20182;-70
2022/12/28 07:30:53;;;;;;;1.20;0.93;;;6.20;99.90;;;;;;5032993;28;20539;-71
2022/12/28 07:33:19;;;;;;;2.20;0.93;;;6.30;99.90;;;;;;5025855;28;20638;-71
2022/12/28 07:35:44;;;;;;;1.90;1.10;;;6.30;99.90;;;;;;5052465;28;20178;-71
2022/12/28 07:38:10;;;;;;;1.27;1.17;;;6.30;99.90;;;;;;5063283;28;20226;-71
2022/12/28 07:40:36;;;;;;;1.63;1.10;;;6.30;99.90;;;;;;5033239;28;20182;-71
2022/12/28 07:43:01;;;;;;;2.57;1.13;;;6.30;99.90;;;;;;5038005;28;20219;-71
2022/12/28 07:45:27;;;;;;;1.60;1.23;;;6.30;99.90;;;;;;5058247;28;20423;-71
2022/12/28 07:47:52;;;;;;;1.50;1.20;;;6.30;99.90;;;;;;5036851;28;20177;-70
2022/12/28 07:50:18;;;;;;;2.30;0.80;;;6.30;99.90;;;;;;5052473;28;20170;-71
2022/12/28 07:52:43;;;;;;;2.80;1.00;;;6.30;99.90;;;;;;5049795;28;20305;-71
2022/12/28 07:55:09;;;;;;;2.50;1.03;;;6.30;99.90;;;;;;5015041;28;20198;-70
2022/12/28 07:57:34;;;;;;;2.57;1.30;;;6.30;99.90;;;;;;5049592;28;20188;-70
2022/12/28 08:00:00;;;;;;;1.83;1.20;;;6.40;99.90;;;;;;5033590;28;20173;-71
2022/12/28 08:02:26;;;;;;;2.73;1.03;;;6.40;99.90;;;;;;5031661;28;20209;-71
2022/12/28 08:04:51;;;;;;;1.20;1.10;;;6.40;99.90;;;;;;5026344;28;20437;-71
2022/12/28 08:07:17;;;;;;;2.80;1.40;;;6.50;99.90;;;;;;5029030;28;20240;-72
2022/12/28 08:09:42;;;;;;;1.40;1.17;;;6.50;99.90;;;;;;5048681;28;20555;-72
2022/12/28 08:12:08;;;;;;;1.30;1.00;;;6.50;99.90;;;;;;5049918;28;20224;-72
2022/12/28 08:14:34;;;;;;;1.30;1.07;;;6.50;99.90;;;;;;5031611;28;20567;-71
2022/12/28 08:16:59;;;;;;;1.83;1.00;;;6.60;99.90;;;;;;5031886;28;20621;-72
2022/12/28 08:19:25;;;;;;;1.17;0.93;;;6.70;99.90;;;;;;5054845;28;20766;-71
2022/12/28 08:21:50;;;;;;;1.00;0.90;;;6.70;99.90;;;;;;5031158;28;20199;-71
2022/12/28 08:24:18;;;;;;;2.80;1.00;;;6.70;99.90;;;;;;5043113;28;20223;-72
2022/12/28 08:26:45;;;;;;;3.33;1.20;;;6.70;99.90;;;;;;5031584;28;20205;-71
2022/12/28 08:29:13;;;;;;;2.20;1.20;;;6.80;99.90;;;;;;5036517;28;20518;-71
2022/12/28 08:31:41;;;;;;;6.10;1.57;;;6.80;99.90;;;;;;5049880;28;21407;-71
2022/12/28 08:34:10;;;;;;;1.70;1.10;;;6.80;99.90;;;;;;5043084;28;20474;-71
2022/12/28 08:36:35;;;;;;;1.47;0.83;;;6.90;99.90;;;;;;5036634;28;20515;-71
2022/12/28 08:39:02;;;;;;;1.10;1.00;;;6.90;99.90;;;;;;5022497;28;20560;-69
2022/12/28 08:41:28;;;;;;;1.33;0.90;;;7.00;99.90;;;;;;5040481;28;20225;-71
2022/12/28 08:43:54;;;;;;;1.20;1.10;;;7.00;99.90;;;;;;5040970;28;20494;-72
2022/12/28 08:46:29;;;;;;;1.70;1.00;;;7.00;99.90;;;;;;5022715;28;20538;-71
2022/12/28 08:48:56;;;;;;;1.90;1.30;;;7.00;99.90;;;;;;5010340;28;20528;-71
2022/12/28 08:51:42;;;;;;;2.53;0.93;;;7.10;99.90;;;;;;5029101;28;20440;-70
2022/12/28 08:54:09;;;;;;;1.77;0.70;;;7.10;99.90;;;;;;5068252;28;20443;-71
2022/12/28 08:56:37;;;;;;;3.23;1.00;;;7.20;99.90;;;;;;5020634;28;20621;-71
2022/12/28 08:59:04;;;;;;;1.97;1.00;;;7.30;99.90;;;;;;5031494;28;20489;-71
2022/12/28 09:01:33;;;;;;;3.53;1.50;;;7.30;99.90;;;;;;5039786;28;21036;-71
2022/12/28 09:04:00;;;;;;;1.40;1.30;;;7.30;99.90;;;;;;5066783;28;20492;-72
2022/12/28 09:06:37;;;;;;;0.97;0.87;;;7.40;99.90;;;;;;5051151;28;21049;-71
2022/12/28 09:09:06;;;;;;;2.60;1.00;;;7.50;99.90;;;;;;5053556;28;20890;-71
2022/12/28 09:11:33;;;;;;;6.87;1.00;;;7.60;99.90;;;;;;5033792;28;20444;-71
2022/12/28 09:14:00;;;;;;;2.20;1.67;;;7.70;99.90;;;;;;5035122;28;20489;-72
2022/12/28 09:16:27;;;;;;;1.10;0.80;;;7.80;99.90;;;;;;5056138;28;20999;-71
2022/12/28 09:18:55;;;;;;;2.00;1.10;;;7.80;99.90;;;;;;5045624;28;20497;-72
2022/12/28 09:21:25;;;;;;;1.37;0.90;;;8.00;99.90;;;;;;5036451;28;20450;-70
2022/12/28 09:23:50;;;;;;;2.97;0.80;;;8.00;99.90;;;;;;5039800;28;20470;-70
2022/12/28 09:26:21;;;;;;;2.90;0.93;;;8.20;99.90;;;;;;5036664;28;20447;-69
2022/12/28 09:28:50;;;;;;;2.20;0.80;;;8.30;99.90;;;;;;5072839;28;20566;-72
2022/12/28 09:31:17;;;;;;;2.83;1.27;;;8.50;99.90;;;;;;5052146;28;20465;-71
2022/12/28 09:33:59;;;;;;;9.70;2.30;;;8.60;99.90;;;;;;5033813;28;20455;-71
2022/12/28 09:36:27;;;;;;;1.37;0.90;;;8.80;99.90;;;;;;5040166;28;20441;-71
2022/12/28 09:38:53;;;;;;;1.43;0.80;;;9.00;99.90;;;;;;5034540;28;20934;-72
2022/12/28 09:41:21;;;;;;;2.30;0.70;;;9.20;99.90;;;;;;5045215;28;20534;-71
2022/12/28 09:43:49;;;;;;;4.07;0.70;;;9.50;99.90;;;;;;5051820;28;20222;-71
2022/12/28 09:46:20;;;;;;;1.80;1.00;;;9.80;99.90;;;;;;5017238;28;20813;-71
2022/12/28 09:48:56;;;;;;;1.30;1.20;;;10.00;99.90;;;;;;5018157;28;20450;-71
2022/12/28 09:51:29;;;;;;;1.10;0.70;;;10.30;99.90;;;;;;5070719;28;20956;-70
2022/12/28 09:53:54;;;;;;;1.40;0.80;;;10.50;99.90;;;;;;5035695;28;20485;-71
2022/12/28 09:56:27;;;;;;;1.83;0.80;;;10.70;99.90;;;;;;5033707;28;20605;-70
2022/12/28 09:58:53;;;;;;;3.40;0.80;;;10.80;99.90;;;;;;5036242;28;20286;-71
2022/12/28 10:01:22;;;;;;;0.70;0.70;;;10.60;99.90;;;;;;5052315;28;21049;-71
2022/12/28 10:03:48;;;;;;;0.93;0.80;;;10.60;99.90;;;;;;5051407;28;20441;-71
2022/12/28 10:06:25;;;;;;;0.80;0.60;;;10.40;99.90;;;;;;5030592;28;20462;-71
2022/12/28 10:08:54;;;;;;;1.50;0.80;;;10.30;99.90;;;;;;5032727;28;20448;-71
2022/12/28 10:11:33;;;;;;;2.50;0.70;;;10.20;99.90;;;;;;5032421;28;20524;-70
2022/12/28 10:14:01;;;;;;;1.50;0.80;;;10.10;99.90;;;;;;5036040;28;20446;-71
2022/12/28 10:16:33;;;;;;;0.70;0.70;;;10.10;99.90;;;;;;5053332;28;20478;-71
2022/12/28 10:18:59;;;;;;;1.43;0.60;;;10.10;99.90;;;;;;5063603;28;20600;-71
2022/12/28 10:21:29;;;;;;;1.33;0.70;;;10.10;99.90;;;;;;5035617;28;20543;-72
2022/12/28 10:23:56;;;;;;;3.27;0.80;;;10.00;99.90;;;;;;5050645;28;20583;-71
2022/12/28 10:26:22;;;;;;;3.67;1.30;;;10.10;99.90;;;;;;5033065;28;21005;-71
2022/12/28 10:28:51;;;;;;;2.83;0.80;;;10.10;99.90;;;;;;5038843;28;20440;-71
2022/12/28 10:31:31;;;;;;;3.17;0.70;;;10.10;99.90;;;;;;5051759;28;20238;-72
2022/12/28 10:33:57;;;;;;;1.10;0.70;;;10.10;99.90;;;;;;5044117;28;21051;-71
2022/12/28 10:36:23;;;;;;;2.43;0.60;;;10.20;99.90;;;;;;5048360;28;20473;-71
2022/12/28 10:38:53;;;;;;;1.20;0.80;;;10.30;99.90;;;;;;5043709;28;20220;-71
2022/12/28 10:41:20;;;;;;;1.50;0.60;;;10.20;99.90;;;;;;5043887;28;20870;-71
2022/12/28 10:43:50;;;;;;;1.20;0.60;;;10.10;99.90;;;;;;5034836;28;20803;-71
2022/12/28 10:46:17;;;;;;;0.80;0.60;;;10.10;99.90;;;;;;5037522;28;20858;-71
2022/12/28 10:48:52;;;;;;;2.30;0.50;;;10.10;99.90;;;;;;5044558;28;20872;-71
2022/12/28 10:51:23;;;;;;;2.13;0.70;;;10.10;99.90;;;;;;5068086;28;20477;-70
2022/12/28 10:53:56;;;;;;;2.80;0.50;;;10.10;99.90;;;;;;5019663;28;20430;-71
2022/12/28 10:56:24;;;;;;;1.33;0.70;;;10.00;99.90;;;;;;5017045;28;20437;-71
2022/12/28 10:58:52;;;;;;;0.60;0.60;;;10.00;99.90;;;;;;5052642;28;20470;-71
2022/12/28 11:01:26;;;;;;;0.80;0.70;;;10.00;99.90;;;;;;5039693;28;20445;-71
2022/12/28 11:03:55;;;;;;;0.90;0.57;;;10.10;99.90;;;;;;5053308;28;20419;-70
2022/12/28 11:06:26;;;;;;;6.53;0.77;;;10.20;99.90;;;;;;5046579;28;20422;-71
2022/12/28 11:09:12;;;;;;;0.70;0.60;;;10.60;99.90;;;;;;5043931;28;20431;-70
2022/12/28 11:11:38;;;;;;;0.70;0.70;;;11.00;99.90;;;;;;5014149;28;20446;-71
2022/12/28 11:14:11;;;;;;;1.57;0.50;;;11.20;99.90;;;;;;5017292;28;20423;-71
2022/12/28 11:16:38;;;;;;;2.77;0.60;;;11.20;99.90;;;;;;5033891;28;20523;-70
2022/12/28 11:19:04;;;;;;;1.00;0.70;;;11.00;99.90;;;;;;5030073;28;20470;-72
2022/12/28 11:21:30;;;;;;;1.00;0.70;;;11.00;99.90;;;;;;5053726;28;21021;-71
2022/12/28 11:23:56;;;;;;;0.93;0.93;;;10.80;99.90;;;;;;5016757;28;20676;-71
2022/12/28 11:26:22;;;;;;;0.67;0.67;;;10.70;99.90;;;;;;5033071;28;20413;-71
2022/12/28 11:28:52;;;;;;;0.70;0.50;;;10.50;99.90;;;;;;5034604;28;20188;-70
2022/12/28 11:31:26;;;;;;;1.70;0.67;;;10.40;99.90;;;;;;4999640;28;20212;-71
2022/12/28 11:33:56;;;;;;;1.30;0.70;;;10.30;99.90;;;;;;5040420;28;20421;-70
2022/12/28 11:36:25;;;;;;;0.90;0.63;;;10.20;99.90;;;;;;5049378;28;20489;-71
2022/12/28 11:38:54;;;;;;;1.20;0.77;;;10.20;99.90;;;;;;5034190;28;20936;-71
2022/12/28 11:41:22;;;;;;;4.50;0.70;;;10.20;99.90;;;;;;5027913;28;20448;-70
2022/12/28 11:43:50;;;;;;;2.77;0.70;;;10.10;99.90;;;;;;5036503;28;20451;-71
2022/12/28 11:46:22;;;;;;;0.73;0.60;;;10.20;99.90;;;;;;5016993;28;20832;-71
2022/12/28 11:49:01;;;;;;;3.23;0.67;;;10.20;99.90;;;;;;5047425;28;20452;-72
2022/12/28 11:51:34;;;;;;;0.73;0.50;;;10.20;99.90;;;;;;5034565;28;20827;-70
2022/12/28 11:54:23;;;;;;;2.00;0.80;;;10.20;99.90;;;;;;5048963;28;20487;-71
2022/12/28 11:56:51;;;;;;;1.17;0.60;;;10.20;99.90;;;;;;5033263;28;20467;-71
2022/12/28 11:59:28;;;;;;;1.63;0.80;;;10.20;99.90;;;;;;5042340;28;20584;-71
2022/12/28 12:01:59;;;;;;;0.87;0.50;;;10.10;99.90;;;;;;5034683;28;20471;-70
2022/12/28 12:04:42;;;;;;;2.00;0.70;;;10.20;99.90;;;;;;5040324;28;20457;-70
2022/12/28 12:07:19;;;;;;;0.67;0.60;;;10.40;99.90;;;;;;5048694;28;20416;-70
2022/12/28 12:09:47;;;;;;;2.40;1.17;;;10.60;99.90;;;;;;5032595;28;20443;-71
2022/12/28 12:12:12;;;;;;;0.80;0.60;;;10.70;99.90;;;;;;5031148;28;20450;-71
2022/12/28 12:15:03;;;;;;;1.23;0.60;;;10.80;99.90;;;;;;5032265;28;20783;-71
2022/12/28 12:17:40;;;;;;;3.17;1.03;;;10.80;99.90;;;;;;5031940;28;20294;-71
2022/12/28 12:20:20;;;;;;;1.33;0.70;;;10.70;99.90;;;;;;5015296;28;20434;-71
2022/12/28 12:23:08;;;;;;;2.23;0.70;;;10.50;99.90;;;;;;5049218;28;20430;-71
2022/12/28 12:25:41;;;;;;;0.60;0.60;;;10.30;99.90;;;;;;5032133;28;20485;-71
2022/12/28 12:28:34;;;;;;;3.60;0.70;;;10.30;99.90;;;;;;5049718;28;20904;-70
2022/12/28 12:31:03;;;;;;;1.27;0.70;;;10.30;99.90;;;;;;5049703;28;20533;-71
2022/12/28 12:33:35;;;;;;;1.37;0.70;;;10.30;99.90;;;;;;5031243;28;20513;-71
2022/12/28 12:36:28;;;;;;;0.60;0.53;;;10.30;99.90;;;;;;5015963;28;20397;-71
2022/12/28 12:39:20;;;;;;;2.73;0.70;;;10.30;99.90;;;;;;5015627;28;20483;-70
2022/12/28 12:42:08;;;;;;;1.23;0.60;;;10.30;99.90;;;;;;5031376;28;20986;-70
2022/12/28 12:44:54;;;;;;;1.27;0.70;;;10.30;99.90;;;;;;5030951;28;20837;-70
2022/12/28 12:47:32;;;;;;;1.20;0.70;;;10.40;99.90;;;;;;5031404;28;20835;-71
2022/12/28 12:50:26;;;;;;;0.70;0.50;;;10.40;99.90;;;;;;5031921;28;20422;-70
2022/12/28 12:53:13;;;;;;;1.90;0.60;;;10.40;99.90;;;;;;5049090;28;20435;-70
2022/12/28 12:55:38;;;;;;;1.97;0.63;;;10.50;99.90;;;;;;5031187;28;20423;-71
2022/12/28 12:58:16;;;;;;;1.03;0.77;;;10.50;99.90;;;;;;5049503;28;20511;-71
2022/12/28 13:00:55;;;;;;;5.57;0.70;;;10.50;99.90;;;;;;5031961;28;20169;-71
2022/12/28 13:03:43;;;;;;;1.43;0.90;;;10.50;99.90;;;;;;5030452;28;20802;-71
2022/12/28 13:06:13;;;;;;;1.63;0.70;;;10.50;99.90;;;;;;5049033;28;20454;-70
2022/12/28 13:08:48;;;;;;;3.17;2.63;;;10.40;99.90;;;;;;5031938;28;20472;-71
2022/12/28 13:11:17;;;;;;;7.13;2.93;;;10.40;99.90;;;;;;5013931;28;20508;-70
2022/12/28 13:13:45;;;;;;;4.73;1.17;;;10.40;99.90;;;;;;5031672;28;20419;-70
2022/12/28 13:16:16;;;;;;;4.13;0.70;;;10.40;99.90;;;;;;5032599;28;20792;-71
2022/12/28 13:19:03;;;;;;;4.70;2.20;;;10.40;99.90;;;;;;5034170;28;20818;-71
2022/12/28 13:21:44;;;;;;;1.53;0.73;;;10.30;99.90;;;;;;5014414;28;20452;-71
2022/12/28 13:24:37;;;;;;;3.13;0.70;;;10.20;99.90;;;;;;5030915;28;20833;-70
2022/12/28 13:27:17;;;;;;;3.93;1.60;;;10.10;99.90;;;;;;5021949;28;20455;-71
2022/12/28 13:29:51;;;;;;;0.93;0.80;;;10.10;99.90;;;;;;5027855;28;20458;-71
2022/12/28 13:32:28;;;;;;;1.73;1.07;;;10.10;99.90;;;;;;5027130;28;20460;-71
2022/12/28 13:34:53;;;;;;;2.47;1.10;;;10.10;99.90;;;;;;5010477;28;20453;-71
2022/12/28 13:37:20;;;;;;;0.80;0.60;;;10.10;99.90;;;;;;4994549;28;20443;-70
2022/12/28 13:39:46;;;;;;;1.10;0.90;;;10.00;99.90;;;;;;5028778;28;20233;-70
2022/12/28 13:42:30;;;;;;;1.90;1.03;;;10.00;99.90;;;;;;5027985;28;20452;-71
2022/12/28 13:45:00;;;;;;;1.10;1.00;;;9.90;99.90;;;;;;4977851;28;20492;-70
2022/12/28 13:47:36;;;;;;;1.80;0.87;;;9.90;99.90;;;;;;5044131;28;21043;-71
2022/12/28 13:50:08;;;;;;;1.70;0.70;;;9.90;99.90;;;;;;5048144;28;20846;-70
2022/12/28 13:52:44;;;;;;;1.93;0.90;;;9.80;99.90;;;;;;5029849;28;20497;-71
2022/12/28 13:55:14;;;;;;;1.33;0.97;;;9.80;99.90;;;;;;5032371;28;20486;-71
2022/12/28 13:57:44;;;;;;;1.07;0.80;;;9.90;99.90;;;;;;5052320;28;20986;-70
2022/12/28 14:00:10;;;;;;;1.07;0.90;;;9.80;99.90;;;;;;5016822;28;20463;-71
2022/12/28 14:02:40;;;;;;;1.83;1.20;;;9.80;99.90;;;;;;5016341;28;20504;-71
2022/12/28 14:05:06;;;;;;;0.93;0.93;;;9.80;99.90;;;;;;5032838;28;20983;-71
2022/12/28 14:07:34;;;;;;;1.20;1.10;;;9.80;99.90;;;;;;5034063;28;21043;-71
2022/12/28 14:10:00;;;;;;;1.20;1.10;;;9.80;99.90;;;;;;5033479;28;20460;-71
2022/12/28 14:12:26;;;;;;;1.17;1.07;;;9.80;99.90;;;;;;5032438;28;20980;-71
2022/12/28 14:14:52;;;;;;;1.80;1.17;;;9.80;99.90;;;;;;5032795;28;20458;-71
2022/12/28 14:17:19;;;;;;;2.13;1.20;;;9.80;99.90;;;;;;5032702;28;20227;-71
2022/12/28 14:19:45;;;;;;;2.57;1.23;;;9.80;99.90;;;;;;5033616;28;20314;-71
2022/12/28 14:22:31;;;;;;;0.83;0.83;;;9.80;99.90;;;;;;5016314;28;20455;-71
2022/12/28 14:25:15;;;;;;;3.50;1.30;;;9.70;99.90;;;;;;5034013;28;20567;-71
2022/12/28 14:27:42;;;;;;;1.93;1.20;;;9.70;99.90;;;;;;5051507;28;20512;-71
2022/12/28 14:30:25;;;;;;;1.93;1.27;;;9.70;99.90;;;;;;5032462;28;20505;-71
2022/12/28 14:32:52;;;;;;;1.20;1.00;;;9.70;99.90;;;;;;5032933;28;20967;-71
2022/12/28 14:35:22;;;;;;;2.13;1.27;;;9.70;99.90;;;;;;5031778;28;20516;-70
2022/12/28 14:37:57;;;;;;;1.10;1.00;;;9.70;99.90;;;;;;5033381;28;20453;-71